Share

De Soto, WI (54624)

DeSoto WI (KWIDESOT1) Elev 778 ft | 43.44 °N, 91.21 °W | Change Station

Current weather conditions updated 0 second ago

Overcast
Overcast
57.0 °F
Feels Like 57.0 °F
N
0.0
Wind Variable Wind from SSE
Gusts 0.0 mph
Sunrise 6:12 AM
Sunset 7:55 PM
Moon Waning Gibbous

Today is forecast to be Warmer than yesterday. Showers and thunderstorms.

Pressure 29.92 in
Visibility 10.0 miles
Clouds Mostly Cloudy 9000 ft
Overcast 11000 ft
Dew Point 55 °F
Humidity 94%
Rainfall 0.04 in
Snow Depth Not available.
UV 0 out of 16
Pollen 8.30 out of 12
Air Quality Not available.
Flu Activity Sporadic
METAR KY51 210914Z AUTO 17007KT 10SM BKN090 OVC110 13/13 A2992 RMK AO1 T01280128

More Conditions Fewer Conditions

Pressure 29.92 in
Visibility 10.0 miles
Clouds Mostly Cloudy 9000 ft
Overcast 11000 ft
Dew Point 55 °F
Humidity 94%
Rainfall 0.04 in
Snow Depth Not available.
UV 0 out of 16
Pollen 8.30 out of 12
Air Quality Not available.
Flu Activity Sporadic
METAR KY51 210914Z AUTO 17007KT 10SM BKN090 OVC110 13/13 A2992 RMK AO1 T01280128

More Conditions Fewer Conditions

10-Day Weather Forecast

Almanac

Astronomy

Apr. 21, 2014 Rise Set
Actual Time 6:12 AM CDT 7:55 PM CDT
Civil Twilight 5:42 AM CDT 8:25 PM CDT
Nautical Twilight 5:05 AM CDT 9:02 PM CDT
Astronomical Twilight 4:25 AM CDT 9:42 PM CDT
Moon 1:27 AM CDT 11:37 AM CDT
Length of Visible Light 14h 43m
Length of Day
13h 42m
Tomorrow will be 2m 45s longer.
Waning Gibbous, 61% of the Moon is Illuminated
Today
Waning Gibbous
Apr 22
Last Quarter
Apr 29
New
May 6
First Quarter
May 14
Full

Today's Extremes

State Highs State Lows

Community

  • Snowy Robin
    Snowy Robin
  • Sun Pillar and Geese
    Sun Pillar and Geese
  • Showers on the Way
    Showers on the Way
  • Easter Morning Fog
    Easter Morning Fog
  • Easter Dance
    Easter Dance

WunderPhotos

Upload Photos

1,703,579 photos uploaded!

Nearby

Snow Depth

Station Depth Elevation
No new snow has been reported.

Coastal Water Temperatures

Place Temperature
No Stations Reporting

Earthquake Activity

City Distance Mag. Time & Date
No recent earthquake activity has been reported nearby.
Minimum magnitude displayed is 2.5.

Nearby Weather Stations

Station Location Temp. Dew Point Humidity Wind Precip. Elev Updated Type
DeSoto WI, DeSoto, WI 57.0 °F 55 °F 94% SSE  at  0.0 mph 0.00 in / hr 778 ft 4:37 AM CDT Rapid Fire
De Soto Wisconsin, De Soto, WI 55.1 °F 55 °F 100% WNW  at  0.0 mph 0.00 in / hr 761 ft 4:37 AM CDT Rapid Fire
RAWS YELLOW RIVER STATE FOREST IA, Harpers Ferry, IA 55 °F 55 °F 100% SW  at  1 mph 0.05 in / hr 651 ft 3:07 AM CDT MADIS
Paint Creek Township, Waterville, IA 54.7 °F 52 °F 91% SE  at  0.0 mph 0.00 in / hr 951 ft 4:30 AM CDT Normal

Show More Stations Show Fewer Stations

What do you think?

We're not finished. Please let us know what you like, what you don't like, and what you are still missing.